Time;durP1;ratioP1;P1;durP2;ratioP2;P2;SDS_P1;SDS_P2;PMS_P1;PMS_P2;Temp;Humidity;BMP_temperature;BMP_pressure;BME280_temperature;BME280_humidity;BME280_pressure;Samples;Min_cycle;Max_cycle;Signal;HPM_P1;HPM_P2
2022/08/26 00:00:20;;;;;;;6.3;5;;;;;;;17.95;82.34961;936.5369;;;;
2022/08/26 00:02:49;;;;;;;6.2;5.1;;;;;;;18.08;82.08301;936.503;;;;
2022/08/26 00:05:16;;;;;;;5.4;4.9;;;;;;;18.17;81.64844;936.5283;;;;
2022/08/26 00:07:43;;;;;;;5.6;5;;;;;;;18.18;81.25488;936.4773;;;;
2022/08/26 00:10:07;;;;;;;6.9;5.2;;;;;;;18.19;81.28027;936.4811;;;;
2022/08/26 00:12:36;;;;;;;5.4;4.7;;;;;;;18.22;81.01953;936.463;;;;
2022/08/26 00:15:01;;;;;;;5.8;5.3;;;;;;;18.21;81.33984;936.4937;;;;
2022/08/26 00:17:29;;;;;;;6.4;5.1;;;;;;;18.21;81.24707;936.4711;;;;
2022/08/26 00:19:54;;;;;;;6.8;4.9;;;;;;;18.19;81.29199;936.4417;;;;
2022/08/26 00:22:20;;;;;;;5.5;4.7;;;;;;;18.25;81.07129;936.48;;;;
2022/08/26 00:24:45;;;;;;;5.3;4.8;;;;;;;18.29;80.64551;936.5269;;;;
2022/08/26 00:27:11;;;;;;;5.3;4.8;;;;;;;18.31;80.5791;936.5086;;;;
2022/08/26 00:29:36;;;;;;;5.5;5;;;;;;;18.3;80.54492;936.5031;;;;
2022/08/26 00:32:07;;;;;;;5.1;4.6;;;;;;;18.22;80.93848;936.4911;;;;
2022/08/26 00:34:32;;;;;;;5;4.5;;;;;;;18.16;81.18066;936.519;;;;
2022/08/26 00:37:08;;;;;;;7.7;4.6;;;;;;;18.09;81.38965;936.4938;;;;
2022/08/26 00:39:32;;;;;;;5;4.6;;;;;;;18.11;81.34668;936.4539;;;;
2022/08/26 00:41:59;;;;;;;6;4.9;;;;;;;18.18;81.05762;936.4539;;;;
2022/08/26 00:44:23;;;;;;;5.9;4.9;;;;;;;18.21;80.83008;936.4364;;;;
2022/08/26 00:46:57;;;;;;;4.7;4.3;;;;;;;18.23;80.60156;936.4225;;;;
2022/08/26 00:49:24;;;;;;;5.1;4.5;;;;;;;18.24;80.38184;936.436;;;;
2022/08/26 00:51:57;;;;;;;5;4.5;;;;;;;18.12;80.68555;936.3572;;;;
2022/08/26 00:54:23;;;;;;;4.6;4.2;;;;;;;18.01;81.12891;936.4891;;;;
2022/08/26 00:56:49;;;;;;;5.1;4.6;;;;;;;18.11;80.79883;936.4058;;;;
2022/08/26 00:59:14;;;;;;;4.8;4.4;;;;;;;18.06;80.76758;936.4648;;;;
2022/08/26 01:01:41;;;;;;;5.2;4.3;;;;;;;18.04;80.62402;936.4919;;;;
2022/08/26 01:04:06;;;;;;;5;4.5;;;;;;;17.94;80.93164;936.4221;;;;
2022/08/26 01:06:32;;;;;;;5;4.5;;;;;;;17.84;81.33105;936.4395;;;;
2022/08/26 01:08:57;;;;;;;5.2;4.7;;;;;;;17.67;82.21582;936.4078;;;;
2022/08/26 01:11:22;;;;;;;4.6;4.2;;;;;;;17.63;82.63867;936.399;;;;
2022/08/26 01:13:48;;;;;;;4.8;4.3;;;;;;;17.71;82.30566;936.4138;;;;
2022/08/26 01:16:12;;;;;;;4.8;4.3;;;;;;;17.75;82.06934;936.4283;;;;
2022/08/26 01:18:38;;;;;;;4.7;4.3;;;;;;;17.76;82.09375;936.4167;;;;
2022/08/26 01:21:05;;;;;;;4.9;4.5;;;;;;;17.79;81.84473;936.4716;;;;
2022/08/26 01:23:30;;;;;;;5.4;4.6;;;;;;;17.82;81.61816;936.405;;;;
2022/08/26 01:25:58;;;;;;;5.1;4.6;;;;;;;17.77;81.6543;936.4769;;;;
2022/08/26 01:28:23;;;;;;;5;4.5;;;;;;;17.76;81.71289;936.4247;;;;
2022/08/26 01:30:49;;;;;;;5.5;4.6;;;;;;;17.77;81.67773;936.4431;;;;
2022/08/26 01:33:16;;;;;;;5.2;4.5;;;;;;;17.74;81.70703;936.442;;;;
2022/08/26 01:35:41;;;;;;;4.4;4;;;;;;;17.76;81.75684;936.4465;;;;
2022/08/26 01:38:10;;;;;;;5.3;4.8;;;;;;;17.77;81.71289;936.4149;;;;
2022/08/26 01:40:36;;;;;;;5.1;4.6;;;;;;;17.74;81.87012;936.4155;;;;
2022/08/26 01:43:03;;;;;;;5.1;4.6;;;;;;;17.68;81.75586;936.428;;;;
2022/08/26 01:45:28;;;;;;;7.5;4.7;;;;;;;17.69;81.98926;936.4061;;;;
2022/08/26 01:47:54;;;;;;;5.4;4.9;;;;;;;17.67;81.91406;936.4191;;;;
2022/08/26 01:50:25;;;;;;;5;4.1;;;;;;;17.68;81.84668;936.4459;;;;
2022/08/26 01:52:50;;;;;;;5;4.4;;;;;;;17.69;81.99902;936.4022;;;;
2022/08/26 01:55:16;;;;;;;6.1;4.7;;;;;;;17.7;82.0957;936.4364;;;;
2022/08/26 01:57:43;;;;;;;5.3;4.8;;;;;;;17.74;81.8584;936.4011;;;;
2022/08/26 02:00:11;;;;;;;5.6;4.6;;;;;;;17.74;81.8584;936.3793;;;;
2022/08/26 02:02:41;;;;;;;4.7;4.3;;;;;;;17.79;81.64746;936.4056;;;;
2022/08/26 02:05:17;;;;;;;5.9;4.7;;;;;;;17.78;81.52832;936.4122;;;;
2022/08/26 02:07:44;;;;;;;5.2;4.7;;;;;;;17.75;81.39551;936.4572;;;;
2022/08/26 02:10:09;;;;;;;5.8;5.1;;;;;;;17.78;81.49316;936.4509;;;;
2022/08/26 02:12:38;;;;;;;5;4.5;;;;;;;17.82;81.38574;936.4695;;;;
2022/08/26 02:15:08;;;;;;;4.8;4.4;;;;;;;17.74;81.02246;936.4308;;;;
2022/08/26 02:17:34;;;;;;;5.1;4.6;;;;;;;17.69;81.50195;936.4689;;;;
2022/08/26 02:19:59;;;;;;;5.2;4.7;;;;;;;17.72;81.55273;936.4408;;;;
2022/08/26 02:22:25;;;;;;;5.1;4.6;;;;;;;17.72;81.39063;936.415;;;;
2022/08/26 02:24:49;;;;;;;4.9;4.4;;;;;;;17.67;81.6123;936.4359;;;;
2022/08/26 02:27:18;;;;;;;5.2;4.7;;;;;;;17.7;81.57129;936.3817;;;;
2022/08/26 02:29:43;;;;;;;5.6;4.3;;;;;;;17.7;81.6543;936.405;;;;
2022/08/26 02:32:10;;;;;;;6.9;4.4;;;;;;;17.69;81.39551;936.3748;;;;
2022/08/26 02:34:35;;;;;;;4.7;4.2;;;;;;;17.6;81.50684;936.4355;;;;
2022/08/26 02:37:03;;;;;;;5;4.5;;;;;;;17.57;81.65234;936.4385;;;;
2022/08/26 02:39:28;;;;;;;4.7;4.3;;;;;;;17.51;82.09473;936.4486;;;;
2022/08/26 02:41:55;;;;;;;4.4;4;;;;;;;17.4;82.38574;936.4039;;;;
2022/08/26 02:44:20;;;;;;;4.7;4.3;;;;;;;17.36;82.63477;936.3323;;;;
2022/08/26 02:46:47;;;;;;;4.8;4.1;;;;;;;17.33;82.76855;936.4246;;;;
2022/08/26 02:49:12;;;;;;;4.7;4.3;;;;;;;17.32;82.70703;936.3547;;;;
2022/08/26 02:51:42;;;;;;;5;4.6;;;;;;;17.38;82.41699;936.3592;;;;
2022/08/26 02:54:10;;;;;;;4.7;4.3;;;;;;;17.35;82.48145;936.2986;;;;
2022/08/26 02:56:35;;;;;;;4.6;4.2;;;;;;;17.31;82.55469;936.2809;;;;
2022/08/26 02:59:00;;;;;;;7.1;4.6;;;;;;;17.33;82.45313;936.2685;;;;
2022/08/26 03:01:26;;;;;;;5.2;4.3;;;;;;;17.32;82.45215;936.2798;;;;
2022/08/26 03:03:51;;;;;;;5;4.6;;;;;;;17.1;83.44238;936.2791;;;;
2022/08/26 03:06:19;;;;;;;5.9;4.2;;;;;;;17.09;83.6377;936.2453;;;;
2022/08/26 03:08:44;;;;;;;4.7;4.3;;;;;;;16.92;84.24414;936.2731;;;;
2022/08/26 03:11:14;;;;;;;4.8;4.4;;;;;;;16.81;84.83789;936.2233;;;;
2022/08/26 03:13:43;;;;;;;5.6;4.9;;;;;;;16.86;84.61328;936.2003;;;;
2022/08/26 03:16:15;;;;;;;5.3;4.3;;;;;;;16.9;84.34375;936.1818;;;;
2022/08/26 03:18:49;;;;;;;5;4.5;;;;;;;16.9;84.05371;936.1809;;;;
2022/08/26 03:21:14;;;;;;;4.6;4.2;;;;;;;16.82;84.35254;936.2266;;;;
2022/08/26 03:23:43;;;;;;;5.3;4.8;;;;;;;16.69;84.97559;936.2272;;;;
2022/08/26 03:26:08;;;;;;;5.8;5.2;;;;;;;16.61;85.57324;936.1869;;;;
2022/08/26 03:30:38;;;;;;;5.5;5;;;;;;;16.75;84.73047;936.1682;;;;
2022/08/26 03:31:05;;;;;;;5.8;5.2;;;;;;;16.73;84.6709;936.1595;;;;
2022/08/26 03:33:32;;;;;;;5.7;4.5;;;;;;;16.77;84.50293;936.1816;;;;
2022/08/26 03:35:57;;;;;;;6.1;4.8;;;;;;;16.76;84.35059;936.127;;;;
2022/08/26 03:38:28;;;;;;;5.2;4.7;;;;;;;16.79;84.37109;936.1625;;;;
2022/08/26 03:40:53;;;;;;;5.9;4.6;;;;;;;16.85;83.75586;936.1842;;;;
2022/08/26 03:43:25;;;;;;;6.3;4.9;;;;;;;16.79;84.02148;936.079;;;;
2022/08/26 03:45:48;;;;;;;7;4.7;;;;;;;16.66;84.44727;936.1348;;;;
2022/08/26 03:48:19;;;;;;;5.2;4.7;;;;;;;16.69;84.375;936.1233;;;;
2022/08/26 03:50:44;;;;;;;7.5;5.9;;;;;;;16.68;84.32324;936.1967;;;;
2022/08/26 03:53:11;;;;;;;7.9;5.6;;;;;;;16.74;84.11523;936.17;;;;
2022/08/26 03:55:37;;;;;;;10.5;7.3;;;;;;;16.74;83.9668;936.1956;;;;
2022/08/26 03:58:06;;;;;;;7.8;6.3;;;;;;;16.76;83.80762;936.1848;;;;
2022/08/26 04:02:42;;;;;;;6.7;4.8;;;;;;;16.57;84.46484;936.235;;;;
2022/08/26 04:05:12;;;;;;;5.8;4.7;;;;;;;16.6;84.15918;936.2361;;;;
2022/08/26 04:07:42;;;;;;;6.3;4.8;;;;;;;16.47;84.76953;936.1836;;;;
2022/08/26 04:10:07;;;;;;;5.8;4.7;;;;;;;16.3;85.55957;936.1732;;;;
2022/08/26 04:12:32;;;;;;;5;4.5;;;;;;;16.32;85.74609;936.2106;;;;
2022/08/26 04:14:59;;;;;;;4.8;4.4;;;;;;;16.41;85.16406;936.1867;;;;
2022/08/26 04:17:25;;;;;;;4.4;4;;;;;;;;;;;;;
2022/08/26 04:19:49;;;;;;;5.7;4.7;;;;;;;;;;;;;
2022/08/26 04:22:15;;;;;;;5.8;5;;;;;;;;;;;;;
2022/08/26 04:24:40;;;;;;;6.4;4.9;;;;;;;;;;;;;
2022/08/26 04:27:05;;;;;;;6.8;4.8;;;;;;;;;;;;;
2022/08/26 04:29:30;;;;;;;4.4;4;;;;;;;;;;;;;
2022/08/26 04:31:55;;;;;;;4.6;4.2;;;;;;;;;;;;;
2022/08/26 04:34:20;;;;;;;4.7;4.3;;;;;;;;;;;;;
2022/08/26 04:36:46;;;;;;;4.9;4.5;;;;;;;;;;;;;
2022/08/26 04:39:15;;;;;;;6.8;4.7;;;;;;;;;;;;;
2022/08/26 04:41:37;;;;;;;6.5;4.5;;;;;;;;;;;;;
2022/08/26 04:44:05;;;;;;;5.3;4.8;;;;;;;;;;;;;
2022/08/26 04:46:28;;;;;;;4.8;4.3;;;;;;;;;;;;;
2022/08/26 04:48:53;;;;;;;5.3;4.8;;;;;;;;;;;;;
2022/08/26 04:51:19;;;;;;;5;4.4;;;;;;;;;;;;;
2022/08/26 04:53:44;;;;;;;4.8;4.3;;;;;;;;;;;;;
2022/08/26 04:56:09;;;;;;;5.2;4.6;;;;;;;;;;;;;
2022/08/26 04:58:36;;;;;;;5.3;4.8;;;;;;;;;;;;;
2022/08/26 05:01:01;;;;;;;4.8;4.3;;;;;;;;;;;;;
2022/08/26 05:03:28;;;;;;;5.8;4.3;;;;;;;;;;;;;
2022/08/26 05:06:11;;;;;;;6;4.2;;;;;;;;;;;;;
2022/08/26 05:08:18;;;;;;;5.2;4.7;;;;;;;;;;;;;
2022/08/26 05:10:43;;;;;;;4.7;4.1;;;;;;;;;;;;;
2022/08/26 05:13:10;;;;;;;4.8;4.3;;;;;;;;;;;;;
2022/08/26 05:15:35;;;;;;;4.6;3.9;;;;;;;;;;;;;
2022/08/26 05:18:02;;;;;;;6.4;4.2;;;;;;;;;;;;;
2022/08/26 05:20:26;;;;;;;6.6;4.5;;;;;;;;;;;;;
2022/08/26 05:22:51;;;;;;;8.8;5;;;;;;;;;;;;;
2022/08/26 05:25:17;;;;;;;5.5;3.8;;;;;;;;;;;;;
2022/08/26 05:27:47;;;;;;;6.7;4.4;;;;;;;;;;;;;
2022/08/26 05:30:14;;;;;;;4.3;3.9;;;;;;;;;;;;;
2022/08/26 05:32:40;;;;;;;4.8;4.1;;;;;;;;;;;;;
2022/08/26 05:35:05;;;;;;;4.5;4.1;;;;;;;;;;;;;
2022/08/26 05:37:30;;;;;;;4.7;4.2;;;;;;;;;;;;;
2022/08/26 05:39:56;;;;;;;4.5;4.1;;;;;;;;;;;;;
2022/08/26 05:42:21;;;;;;;6.3;3.8;;;;;;;;;;;;;
2022/08/26 05:44:47;;;;;;;5.2;3.7;;;;;;;;;;;;;
2022/08/26 05:47:12;;;;;;;4.3;3.5;;;;;;;;;;;;;
2022/08/26 05:49:38;;;;;;;4.1;3.4;;;;;;;;;;;;;
2022/08/26 05:52:03;;;;;;;4.7;3.2;;;;;;;;;;;;;
2022/08/26 05:54:32;;;;;;;4.6;3.4;;;;;;;;;;;;;
2022/08/26 05:56:55;;;;;;;3.7;3.1;;;;;;;;;;;;;
2022/08/26 05:59:21;;;;;;;5.2;3.2;;;;;;;;;;;;;
2022/08/26 06:01:46;;;;;;;3.3;3;;;;;;;;;;;;;
2022/08/26 06:04:12;;;;;;;3.1;2.8;;;;;;;;;;;;;
2022/08/26 06:06:40;;;;;;;3.7;3.4;;;;;;;;;;;;;
2022/08/26 06:09:05;;;;;;;4.7;2.9;;;;;;;;;;;;;
2022/08/26 06:11:31;;;;;;;3.6;3;;;;;;;;;;;;;
2022/08/26 06:13:57;;;;;;;3.2;2.9;;;;;;;;;;;;;
2022/08/26 06:16:21;;;;;;;3.7;2.7;;;;;;;;;;;;;
2022/08/26 06:18:47;;;;;;;3.1;2.8;;;;;;;;;;;;;
2022/08/26 06:21:12;;;;;;;2.8;2.5;;;;;;;;;;;;;
2022/08/26 06:26:03;;;;;;;3.3;2.7;;;;;;;;;;;;;
2022/08/26 06:28:28;;;;;;;3.5;2.9;;;;;;;;;;;;;
2022/08/26 06:30:53;;;;;;;2.9;2.7;;;;;;;;;;;;;
2022/08/26 06:33:18;;;;;;;3.8;2.9;;;;;;;;;;;;;
2022/08/26 06:35:45;;;;;;;3.2;2.9;;;;;;;;;;;;;
2022/08/26 06:38:08;;;;;;;3.6;3;;;;;;;;;;;;;
2022/08/26 06:40:35;;;;;;;3.5;2.8;;;;;;;;;;;;;
2022/08/26 06:43:01;;;;;;;3.2;2.9;;;;;;;;;;;;;
2022/08/26 06:45:26;;;;;;;5.2;3.3;;;;;;;;;;;;;
2022/08/26 06:47:51;;;;;;;6.8;3.5;;;;;;;;;;;;;
2022/08/26 06:50:18;;;;;;;3.9;2.9;;;;;;;;;;;;;
2022/08/26 06:52:44;;;;;;;3.7;3.3;;;;;;;;;;;;;
2022/08/26 06:55:10;;;;;;;5.7;3.5;;;;;;;;;;;;;
2022/08/26 06:57:35;;;;;;;3.6;3.2;;;;;;;;;;;;;
2022/08/26 07:00:00;;;;;;;4.3;3.3;;;;;;;;;;;;;
2022/08/26 07:02:25;;;;;;;3.7;3;;;;;;;;;;;;;
2022/08/26 07:04:51;;;;;;;4;3;;;;;;;;;;;;;
2022/08/26 07:07:16;;;;;;;3.1;2.8;;;;;;;;;;;;;
2022/08/26 07:09:43;;;;;;;3.8;2.8;;;;;;;;;;;;;
2022/08/26 07:12:08;;;;;;;3.1;2.8;;;;;;;;;;;;;
2022/08/26 07:14:34;;;;;;;2.7;2.5;;;;;;;;;;;;;
2022/08/26 07:17:00;;;;;;;2.6;2.4;;;;;;;;;;;;;
2022/08/26 07:19:24;;;;;;;4.5;2.9;;;;;;;;;;;;;
2022/08/26 07:21:49;;;;;;;3;2.3;;;;;;;;;;;;;
2022/08/26 07:24:17;;;;;;;2.8;2.6;;;;;;;;;;;;;
2022/08/26 07:26:42;;;;;;;2.8;2.5;;;;;;;;;;;;;
2022/08/26 07:29:10;;;;;;;3.1;2.4;;;;;;;;;;;;;
2022/08/26 07:31:35;;;;;;;3.1;2.3;;;;;;;;;;;;;
2022/08/26 07:33:59;;;;;;;3;2.7;;;;;;;;;;;;;
2022/08/26 07:36:26;;;;;;;3.1;2.8;;;;;;;;;;;;;
2022/08/26 07:38:52;;;;;;;2.8;2.5;;;;;;;;;;;;;
2022/08/26 07:41:16;;;;;;;3.3;2.5;;;;;;;;;;;;;
2022/08/26 07:43:44;;;;;;;2.5;2.3;;;;;;;;;;;;;
2022/08/26 07:46:09;;;;;;;3.1;2.5;;;;;;;;;;;;;
2022/08/26 07:48:35;;;;;;;2.8;2.6;;;;;;;;;;;;;
2022/08/26 07:51:00;;;;;;;3.2;2.5;;;;;;;;;;;;;
2022/08/26 07:53:27;;;;;;;2.7;2.5;;;;;;;;;;;;;
2022/08/26 07:55:52;;;;;;;3;2.7;;;;;;;;;;;;;
2022/08/26 07:58:17;;;;;;;2.8;2.6;;;;;;;;;;;;;
2022/08/26 08:00:43;;;;;;;2.7;2.5;;;;;;;;;;;;;
2022/08/26 08:03:08;;;;;;;3.8;2.6;;;;;;;;;;;;;
2022/08/26 08:05:35;;;;;;;4.9;2.8;;;;;;;;;;;;;
2022/08/26 08:07:58;;;;;;;3.2;2.6;;;;;;;;;;;;;
2022/08/26 08:10:23;;;;;;;2.7;2.5;;;;;;;;;;;;;
2022/08/26 08:12:48;;;;;;;3;2.8;;;;;;;;;;;;;
2022/08/26 08:15:14;;;;;;;2.6;2.4;;;;;;;;;;;;;
2022/08/26 08:17:39;;;;;;;2.7;2.5;;;;;;;;;;;;;
2022/08/26 08:20:04;;;;;;;3.1;2.8;;;;;;;;;;;;;
2022/08/26 08:22:31;;;;;;;3.4;3;;;;;;;;;;;;;
2022/08/26 08:24:55;;;;;;;2.7;2.5;;;;;;;;;;;;;
2022/08/26 08:27:20;;;;;;;4;2.7;;;;;;;;;;;;;
2022/08/26 08:29:45;;;;;;;2.6;2.4;;;;;;;;;;;;;
2022/08/26 08:32:10;;;;;;;3;2.5;;;;;;;;;;;;;
2022/08/26 08:34:35;;;;;;;3.2;2.8;;;;;;;;;;;;;
2022/08/26 08:37:00;;;;;;;2.9;2.4;;;;;;;;;;;;;
2022/08/26 08:39:27;;;;;;;6.1;2.6;;;;;;;;;;;;;
2022/08/26 08:41:51;;;;;;;2.6;2.4;;;;;;;;;;;;;
2022/08/26 08:44:19;;;;;;;2.7;2.5;;;;;;;;;;;;;
2022/08/26 08:46:43;;;;;;;3.2;2.2;;;;;;;;;;;;;
2022/08/26 08:49:08;;;;;;;2.4;2.2;;;;;;;;;;;;;
2022/08/26 08:51:36;;;;;;;2.5;2.3;;;;;;;;;;;;;
2022/08/26 08:54:01;;;;;;;2.4;2.2;;;;;;;;;;;;;
2022/08/26 08:56:26;;;;;;;2.5;2.3;;;;;;;;;;;;;
2022/08/26 08:58:52;;;;;;;2.4;2.2;;;;;;;;;;;;;
2022/08/26 09:01:17;;;;;;;3.1;2.4;;;;;;;;;;;;;
2022/08/26 09:03:44;;;;;;;3.9;2.6;;;;;;;;;;;;;
2022/08/26 09:06:15;;;;;;;2.8;2.4;;;;;;;;;;;;;
2022/08/26 09:08:35;;;;;;;2.5;2.3;;;;;;;;;;;;;
2022/08/26 09:10:59;;;;;;;2.4;2.2;;;;;;;;;;;;;
2022/08/26 09:13:26;;;;;;;2.5;2.3;;;;;;;;;;;;;
2022/08/26 09:15:50;;;;;;;2;1.9;;;;;;;;;;;;;
2022/08/26 09:18:15;;;;;;;2.2;2.1;;;;;;;;;;;;;
2022/08/26 09:20:41;;;;;;;2.3;2.1;;;;;;;;;;;;;
2022/08/26 09:23:06;;;;;;;2.7;2.1;;;;;;;;;;;;;
2022/08/26 09:25:31;;;;;;;103.1;10.3;;;;;;;;;;;;;
2022/08/26 09:27:56;;;;;;;38.1;6;;;;;;;;;;;;;
2022/08/26 09:30:23;;;;;;;5;2.5;;;;;;;;;;;;;
2022/08/26 09:32:48;;;;;;;58.8;7;;;;;;;;;;;;;
2022/08/26 09:35:16;;;;;;;6.6;2.6;;;;;;;;;;;;;
2022/08/26 09:37:43;;;;;;;2.4;2.2;;;;;;;;;;;;;
2022/08/26 09:40:12;;;;;;;5.4;2.5;;;;;;;;;;;;;
2022/08/26 09:42:37;;;;;;;55.4;5.7;;;;;;;;;;;;;
2022/08/26 09:45:05;;;;;;;11.6;3.5;;;;;;;;;;;;;
2022/08/26 09:47:28;;;;;;;11.8;2.9;;;;;;;;;;;;;
2022/08/26 09:49:53;;;;;;;7.1;2.6;;;;;;;;;;;;;
2022/08/26 09:52:18;;;;;;;2.8;2.5;;;;;;;;;;;;;
2022/08/26 09:54:44;;;;;;;3.3;3;;;;;;;;;;;;;
2022/08/26 09:57:09;;;;;;;21.2;4.6;;;;;;;;;;;;;
2022/08/26 09:59:34;;;;;;;13.1;3.4;;;;;;;;;;;;;
2022/08/26 10:01:59;;;;;;;3.3;2.4;;;;;;;;;;;;;
2022/08/26 10:04:25;;;;;;;8.8;3;;;;;;;;;;;;;
2022/08/26 10:06:50;;;;;;;3.2;2.4;;;;;;;;;;;;;
2022/08/26 10:09:16;;;;;;;4.3;2.3;;;;;;;;;;;;;
2022/08/26 10:11:42;;;;;;;2.4;2.2;;;;;;;;;;;;;
2022/08/26 10:14:10;;;;;;;3.2;2.4;;;;;;;;;;;;;
2022/08/26 10:16:35;;;;;;;4.7;2.5;;;;;;;;;;;;;
2022/08/26 10:19:00;;;;;;;2.9;2.5;;;;;;;;;;;;;
2022/08/26 10:21:27;;;;;;;3.1;2.4;;;;;;;;;;;;;
2022/08/26 10:23:53;;;;;;;4.9;2.5;;;;;;;;;;;;;
2022/08/26 10:26:21;;;;;;;3;2.5;;;;;;;;;;;;;
2022/08/26 10:28:43;;;;;;;3.1;2.7;;;;;;;;;;;;;
2022/08/26 10:31:09;;;;;;;5.6;3.2;;;;;;;;;;;;;
2022/08/26 10:33:34;;;;;;;2.7;2.3;;;;;;;;;;;;;
2022/08/26 10:35:59;;;;;;;2.5;2.3;;;;;;;;;;;;;
2022/08/26 10:38:28;;;;;;;2.8;2.4;;;;;;;;;;;;;
2022/08/26 10:40:52;;;;;;;2.6;2.3;;;;;;;;;;;;;
2022/08/26 10:43:19;;;;;;;2.4;2.2;;;;;;;;;;;;;
2022/08/26 10:45:44;;;;;;;2.9;2.5;;;;;;;;;;;;;
2022/08/26 10:48:11;;;;;;;2.5;2.3;;;;;;;;;;;;;
2022/08/26 10:50:36;;;;;;;4.3;2.6;;;;;;;;;;;;;
2022/08/26 10:53:01;;;;;;;3.4;2.4;;;;;;;;;;;;;
2022/08/26 10:55:26;;;;;;;2.3;2.1;;;;;;;;;;;;;
2022/08/26 10:57:52;;;;;;;7.8;2.5;;;;;;;;;;;;;
2022/08/26 11:02:47;;;;;;;3.7;2.2;;;;;;;;;;;;;
2022/08/26 11:05:10;;;;;;;2.8;2.2;;;;;;;;;;;;;
2022/08/26 11:07:40;;;;;;;4;2.3;;;;;;;;;;;;;
2022/08/26 11:10:11;;;;;;;2.6;2.4;;;;;;;;;;;;;
2022/08/26 11:12:35;;;;;;;2.5;2.3;;;;;;;;;;;;;
2022/08/26 11:15:00;;;;;;;2.1;1.9;;;;;;;;;;;;;
2022/08/26 11:17:29;;;;;;;3;2.3;;;;;;;;;;;;;
2022/08/26 11:19:55;;;;;;;3;2.2;;;;;;;;;;;;;
2022/08/26 11:22:20;;;;;;;2.5;2.3;;;;;;;;;;;;;
2022/08/26 11:24:46;;;;;;;2.4;2.2;;;;;;;;;;;;;
2022/08/26 11:27:11;;;;;;;2.9;2.3;;;;;;;;;;;;;
2022/08/26 11:29:36;;;;;;;2.2;2.1;;;;;;;;;;;;;
2022/08/26 11:32:01;;;;;;;2.4;2.2;;;;;;;;;;;;;
2022/08/26 11:34:26;;;;;;;2.3;2.1;;;;;;;;;;;;;
2022/08/26 11:36:51;;;;;;;2.3;2.1;;;;;;;;;;;;;
2022/08/26 11:39:19;;;;;;;2.1;1.9;;;;;;;;;;;;;
2022/08/26 11:41:41;;;;;;;3;2;;;;;;;;;;;;;
2022/08/26 11:44:14;;;;;;;2.7;2.2;;;;;;;;;;;;;
2022/08/26 11:46:42;;;;;;;2.5;2.3;;;;;;;;;;;;;
2022/08/26 11:49:07;;;;;;;2.3;2.2;;;;;;;;;;;;;
2022/08/26 11:51:33;;;;;;;3.7;2.2;;;;;;;;;;;;;
2022/08/26 11:54:04;;;;;;;2.3;2.1;;;;;;;;;;;;;
2022/08/26 11:56:31;;;;;;;2.6;2.2;;;;;;;;;;;;;
2022/08/26 11:58:54;;;;;;;2.5;2.2;;;;;;;;;;;;;
2022/08/26 12:01:19;;;;;;;3.8;2.6;;;;;;;;;;;;;
2022/08/26 12:03:44;;;;;;;2.4;2.2;;;;;;;;;;;;;
2022/08/26 12:06:10;;;;;;;2.3;2.1;;;;;;;;;;;;;
2022/08/26 12:08:36;;;;;;;3.2;2;;;;;;;;;;;;;
2022/08/26 12:11:01;;;;;;;2.1;2;;;;;;;;;;;;;
2022/08/26 12:13:29;;;;;;;2.5;2.1;;;;;;;;;;;;;
2022/08/26 12:15:54;;;;;;;3.2;2;;;;;;;;;;;;;
2022/08/26 12:18:19;;;;;;;2.1;1.9;;;;;;;;;;;;;
2022/08/26 12:20:53;;;;;;;2.2;2;;;;;;;;;;;;;
2022/08/26 12:23:11;;;;;;;2.2;1.9;;;;;;;;;;;;;
2022/08/26 12:25:37;;;;;;;2.8;1.9;;;;;;;;;;;;;
2022/08/26 12:28:01;;;;;;;1.8;1.7;;;;;;;;;;;;;
2022/08/26 12:30:26;;;;;;;3.2;2.1;;;;;;;;;;;;;
2022/08/26 12:32:51;;;;;;;2.3;2.1;;;;;;;;;;;;;
2022/08/26 12:35:19;;;;;;;2.4;2;;;;;;;;;;;;;
2022/08/26 12:37:44;;;;;;;2.1;1.9;;;;;;;;;;;;;
2022/08/26 12:40:13;;;;;;;2;1.9;;;;;;;;;;;;;
2022/08/26 12:42:41;;;;;;;2.4;2.2;;;;;;;;;;;;;
2022/08/26 12:45:05;;;;;;;2.3;2.1;;;;;;;;;;;;;
2022/08/26 12:47:33;;;;;;;2.1;1.9;;;;;;;;;;;;;
2022/08/26 12:49:58;;;;;;;2;1.9;;;;;;;;;;;;;
2022/08/26 12:52:28;;;;;;;2.7;2.1;;;;;;;;;;;;;
2022/08/26 12:55:03;;;;;;;2.9;2.1;;;;;;;;;;;;;
2022/08/26 12:57:14;;;;;;;1.9;1.8;;;;;;;;;;;;;
2022/08/26 12:59:39;;;;;;;2.1;1.9;;;;;;;;;;;;;
2022/08/26 13:02:04;;;;;;;2.5;2;;;;;;;;;;;;;
2022/08/26 13:04:34;;;;;;;2.1;1.9;;;;;;;;;;;;;
2022/08/26 13:06:57;;;;;;;2;1.9;;;;;;;;;;;;;
2022/08/26 13:09:22;;;;;;;3.4;2.1;;;;;;;;;;;;;
2022/08/26 13:11:48;;;;;;;2.3;2.1;;;;;;;;;;;;;
2022/08/26 13:14:13;;;;;;;2.4;2.2;;;;;;;;;;;;;
2022/08/26 13:16:38;;;;;;;2.3;2.1;;;;;;;;;;;;;
2022/08/26 13:19:04;;;;;;;2.3;2.1;;;;;;;;;;;;;
2022/08/26 13:21:30;;;;;;;3.4;2.4;;;;;;;;;;;;;
2022/08/26 13:23:57;;;;;;;3;2.3;;;;;;;;;;;;;
2022/08/26 13:26:21;;;;;;;2.6;2.3;;;;;;;;;;;;;
2022/08/26 13:28:47;;;;;;;2.1;1.9;;;;;;;;;;;;;
2022/08/26 13:31:12;;;;;;;3;2.3;;;;;;;;;;;;;
2022/08/26 13:33:38;;;;;;;2.2;2.1;;;;;;;;;;;;;
2022/08/26 13:36:03;;;;;;;2.7;2.4;;;;;;;;;;;;;
2022/08/26 13:38:31;;;;;;;2.4;2.2;;;;;;;;;;;;;
2022/08/26 13:40:58;;;;;;;2.4;2.2;;;;;;;;;;;;;
2022/08/26 13:43:20;;;;;;;3.5;2.1;;;;;;;;;;;;;
2022/08/26 13:45:48;;;;;;;2.6;2.4;;;;;;;;;;;;;
2022/08/26 13:48:10;;;;;;;3.4;2.2;;;;;;;;;;;;;
2022/08/26 13:50:37;;;;;;;2.5;2.3;;;;;;;;;;;;;
2022/08/26 13:53:02;;;;;;;2.4;2.2;;;;;;;;;;;;;
2022/08/26 13:55:29;;;;;;;2.9;2;;;;;;;;;;;;;
2022/08/26 13:57:52;;;;;;;2.3;2.1;;;;;;;;;;;;;
2022/08/26 14:00:19;;;;;;;2.6;2.4;;;;;;;;;;;;;
2022/08/26 14:02:44;;;;;;;2.7;2.5;;;;;;;;;;;;;
2022/08/26 14:05:13;;;;;;;3.1;2.3;;;;;;;;;;;;;
2022/08/26 14:07:38;;;;;;;2.6;2.1;;;;;;;;;;;;;
2022/08/26 14:10:03;;;;;;;2.9;2.3;;;;;;;;;;;;;
2022/08/26 14:12:28;;;;;;;3.7;2.4;;;;;;;;;;;;;
2022/08/26 14:14:53;;;;;;;2.8;2.5;;;;;;;;;;;;;
2022/08/26 14:17:18;;;;;;;2.9;2.5;;;;;;;;;;;;;
2022/08/26 14:19:46;;;;;;;7.3;2.9;;;;;;;;;;;;;
2022/08/26 14:22:11;;;;;;;3.2;2.1;;;;;;;;;;;;;
2022/08/26 14:24:37;;;;;;;2.8;2.3;;;;;;;;;;;;;
2022/08/26 14:27:02;;;;;;;3.7;2.3;;;;;;;;;;;;;
2022/08/26 14:29:28;;;;;;;3;2.3;;;;;;;;;;;;;
2022/08/26 14:31:53;;;;;;;2.6;2.2;;;;;;;;;;;;;
2022/08/26 14:34:20;;;;;;;3.4;2.5;;;;;;;;;;;;;
2022/08/26 14:36:45;;;;;;;3.9;2.4;;;;;;;;;;;;;
2022/08/26 14:39:13;;;;;;;3.5;2.3;;;;;;;;;;;;;
2022/08/26 14:41:47;;;;;;;2.6;2.3;;;;;;;;;;;;;
2022/08/26 14:44:03;;;;;;;2.4;2.2;;;;;;;;;;;;;
2022/08/26 14:46:28;;;;;;;2.9;2.3;;;;;;;;;;;;;
2022/08/26 14:48:54;;;;;;;2.9;2.2;;;;;;;;;;;;;
2022/08/26 14:51:20;;;;;;;2.9;2.3;;;;;;;;;;;;;
2022/08/26 14:56:09;;;;;;;2.6;2.4;;;;;;;;;;;;;
2022/08/26 14:58:37;;;;;;;2.8;2.2;;;;;;;;;;;;;
2022/08/26 15:01:02;;;;;;;3.9;2.5;;;;;;;;;;;;;
2022/08/26 15:03:28;;;;;;;2.7;2.5;;;;;;;;;;;;;
2022/08/26 15:05:53;;;;;;;3.9;2.8;;;;;;;;;;;;;
2022/08/26 15:08:19;;;;;;;2.5;2.3;;;;;;;;;;;;;
2022/08/26 15:10:43;;;;;;;8.8;2.3;;;;;;;;;;;;;
2022/08/26 15:13:18;;;;;;;2.8;2.5;;;;;;;;;;;;;
2022/08/26 15:15:36;;;;;;;2.8;2.6;;;;;;;;;;;;;
2022/08/26 15:18:01;;;;;;;2.4;2.2;;;;;;;;;;;;;
2022/08/26 15:20:26;;;;;;;2.6;2.4;;;;;;;;;;;;;
2022/08/26 15:22:54;;;;;;;2.6;2.4;;;;;;;;;;;;;
2022/08/26 15:25:17;;;;;;;3.6;2.7;;;;;;;;;;;;;
2022/08/26 15:27:42;;;;;;;3.7;3.1;;;;;;;;;;;;;
2022/08/26 15:30:11;;;;;;;4;2.8;;;;;;;;;;;;;
2022/08/26 15:32:40;;;;;;;3.3;2.9;;;;;;;;;;;;;
2022/08/26 15:35:05;;;;;;;4.7;2.8;;;;;;;;;;;;;
2022/08/26 15:37:32;;;;;;;5.3;2.7;;;;;;;;;;;;;
2022/08/26 15:39:57;;;;;;;3.4;3.1;;;;;;;;;;;;;
2022/08/26 15:42:25;;;;;;;2.8;2.6;;;;;;;;;;;;;
2022/08/26 15:44:51;;;;;;;3.5;2.8;;;;;;;;;;;;;
2022/08/26 15:47:18;;;;;;;6.2;2.9;;;;;;;;;;;;;
2022/08/26 15:49:43;;;;;;;4.5;2.6;;;;;;;;;;;;;
2022/08/26 15:52:10;;;;;;;4.2;3;;;;;;;;;;;;;
2022/08/26 15:54:35;;;;;;;3.7;3.4;;;;;;;;;;;;;
2022/08/26 15:57:01;;;;;;;3.2;2.9;;;;;;;;;;;;;
2022/08/26 15:59:26;;;;;;;3.1;2.7;;;;;;;;;;;;;
2022/08/26 16:01:56;;;;;;;2.7;2.5;;;;;;;;;;;;;
2022/08/26 16:04:24;;;;;;;2.7;2.5;;;;;;;;;;;;;
2022/08/26 16:06:50;;;;;;;2.8;2.5;;;;;;;;;;;;;
2022/08/26 16:09:15;;;;;;;3;2.3;;;;;;;;;;;;;
2022/08/26 16:11:40;;;;;;;3;2.5;;;;;;;;;;;;;
2022/08/26 16:14:07;;;;;;;2.9;2.6;;;;;;;;;;;;;
2022/08/26 16:16:30;;;;;;;2.5;2.3;;;;;;;;;;;;;
2022/08/26 16:18:58;;;;;;;3.6;2.4;;;;;;;;;;;;;
2022/08/26 16:21:23;;;;;;;2.6;2.4;;;;;;;;;;;;;
2022/08/26 16:23:48;;;;;;;3.7;2.5;;;;;;;;;;;;;
2022/08/26 16:26:14;;;;;;;2.6;2.4;;;;;;;;;;;;;
2022/08/26 16:28:39;;;;;;;2.7;2.4;;;;;;;;;;;;;
2022/08/26 16:31:05;;;;;;;2.5;2.3;;;;;;;;;;;;;
2022/08/26 16:33:30;;;;;;;2.5;2.3;;;;;;;;;;;;;
2022/08/26 16:35:55;;;;;;;2.6;2.3;;;;;;;;;;;;;
2022/08/26 16:38:22;;;;;;;3.6;2.4;;;;;;;;;;;;;
2022/08/26 16:40:47;;;;;;;2.6;2.3;;;;;;;;;;;;;
2022/08/26 16:43:13;;;;;;;2.4;2.2;;;;;;;;;;;;;
2022/08/26 16:45:38;;;;;;;1.8;1.7;;;;;;;;;;;;;
2022/08/26 16:48:04;;;;;;;3.1;2.4;;;;;;;;;;;;;
2022/08/26 16:50:29;;;;;;;2.7;2.4;;;;;;;;;;;;;
2022/08/26 16:52:55;;;;;;;2.9;2.5;;;;;;;;;;;;;
2022/08/26 16:55:20;;;;;;;2.4;2.2;;;;;;;;;;;;;
2022/08/26 16:57:46;;;;;;;2.2;2;;;;;;;;;;;;;
2022/08/26 17:00:11;;;;;;;3.3;2.7;;;;;;;;;;;;;
2022/08/26 17:02:38;;;;;;;3.3;2.2;;;;;;;;;;;;;
2022/08/26 17:05:03;;;;;;;2.9;2.4;;;;;;;;;;;;;
2022/08/26 17:07:29;;;;;;;3.5;2.7;;;;;;;;;;;;;
2022/08/26 17:09:54;;;;;;;2.5;2.1;;;;;;;;;;;;;
2022/08/26 17:12:19;;;;;;;2.5;2.2;;;;;;;;;;;;;
2022/08/26 17:14:44;;;;;;;3;2.3;;;;;;;;;;;;;
2022/08/26 17:17:09;;;;;;;2.5;2.3;;;;;;;;;;;;;
2022/08/26 17:19:35;;;;;;;4.1;2.7;;;;;;;;;;;;;
2022/08/26 17:22:00;;;;;;;2.6;2.4;;;;;;;;;;;;;
2022/08/26 17:24:26;;;;;;;2.6;2.4;;;;;;;;;;;;;
2022/08/26 17:26:51;;;;;;;3;2.7;;;;;;;;;;;;;
2022/08/26 17:29:17;;;;;;;3;2.7;;;;;;;;;;;;;
2022/08/26 17:31:42;;;;;;;3.3;2.7;;;;;;;;;;;;;
2022/08/26 17:34:08;;;;;;;2.8;2.6;;;;;;;;;;;;;
2022/08/26 17:36:34;;;;;;;4.3;2.9;;;;;;;;;;;;;
2022/08/26 17:39:01;;;;;;;3.3;2.9;;;;;;;;;;;;;
2022/08/26 17:41:26;;;;;;;3.3;3;;;;;;;;;;;;;
2022/08/26 17:43:52;;;;;;;3.7;3.3;;;;;;;;;;;;;
2022/08/26 17:46:17;;;;;;;3.3;3;;;;;;;;;;;;;
2022/08/26 17:48:43;;;;;;;3.2;2.9;;;;;;;;;;;;;
2022/08/26 17:51:08;;;;;;;6;3.3;;;;;;;;;;;;;
2022/08/26 17:53:34;;;;;;;3.2;2.9;;;;;;;;;;;;;
2022/08/26 17:55:58;;;;;;;4.3;3.3;;;;;;;;;;;;;
2022/08/26 17:58:24;;;;;;;4.3;3.2;;;;;;;;;;;;;
2022/08/26 18:00:49;;;;;;;3.8;3;;;;;;;;;;;;;
2022/08/26 18:03:17;;;;;;;3.3;3;;;;;;;;;;;;;
2022/08/26 18:05:42;;;;;;;3.1;2.8;;;;;;;;;;;;;
2022/08/26 18:08:07;;;;;;;3.7;3.2;;;;;;;;;;;;;
2022/08/26 18:10:32;;;;;;;5;3.4;;;;;;;;;;;;;
2022/08/26 18:12:58;;;;;;;5.3;4.1;;;;;;;;;;;;;
2022/08/26 18:15:23;;;;;;;3.8;3.5;;;;;;;;;;;;;
2022/08/26 18:17:49;;;;;;;4.3;3.9;;;;;;;;;;;;;
2022/08/26 18:20:14;;;;;;;5.7;3.8;;;;;;;;;;;;;
2022/08/26 18:22:40;;;;;;;4.4;4;;;;;;;;;;;;;
2022/08/26 18:25:05;;;;;;;6;3.7;;;;;;;;;;;;;
2022/08/26 18:27:31;;;;;;;4.8;3.8;;;;;;;;;;;;;
2022/08/26 18:29:56;;;;;;;4.9;3.5;;;;;;;;;;;;;
2022/08/26 18:32:21;;;;;;;3.4;3.1;;;;;;;;;;;;;
2022/08/26 18:34:47;;;;;;;3.5;3.2;;;;;;;;;;;;;
2022/08/26 18:37:13;;;;;;;4.8;3.3;;;;;;;;;;;;;
2022/08/26 18:39:37;;;;;;;5.1;3.7;;;;;;;;;;;;;
2022/08/26 18:42:04;;;;;;;5.5;4.2;;;;;;;;;;;;;
2022/08/26 18:44:29;;;;;;;6.6;4.1;;;;;;;;;;;;;
2022/08/26 18:46:55;;;;;;;4.1;3.6;;;;;;;;;;;;;
2022/08/26 18:49:20;;;;;;;4.6;3.7;;;;;;;;;;;;;
2022/08/26 18:51:46;;;;;;;4.2;3.8;;;;;;;;;;;;;
2022/08/26 18:54:11;;;;;;;6.4;4.1;;;;;;;;;;;;;